FLIGHT INFORMATION
United Airlines

UAL1598

At Arrival Gate

KBOS
 KORD
DATE: 2019-11-24
GATE:  -
GATE DEPARTURE: 22:38
TAKEOFF: 22:52
DATE: 2019-11-25
GATE:  -
LANDING: 01:08
GATE ARRIVAL: 01:20
FLIGHT DATA
Crew: MICHAEL ROTH
Speed: 464 kts Altitude: 38000 ft
Stage Length: 751 nm
Route: 
Block Time: 2.7 Flight Time: 2.3
Fuel Used: 13456 LB
TRACK DATA
50000 FT1000 KTAltitudeSpeed
AIRCRAFT INFORMATION
Aircraft Type: B738SSW
Registration: N37267
SELCAL:  MSN/LN: 31586 / 939
Operator: UNITED AIRLINES
Flights: 26 Block Time: 66.1 Flight Time: 59.4
Fuel Used: 394987 LB
  • DEPARTURE INFORMATION
    Date: 2019-11-24
    Airport: KBOS
    Gate:  -
    Gate Departure: 22:38
    Takeoff: 22:52
    ARRIVAL INFORMATION
    Date: 2019-11-25
    Airport: KORD
    Gate:  -
    Landing: 01:08
    Gate Arrival: 01:20
  • FLIGHT DATA
    Crew: MICHAEL ROTH
    Speed: 464 kts Altitude: 38000 ft
    Stage Length: 406 nm
    Route: 
    Block Time: 2.7 Flight Time: 2.3
    Fuel Used: 13456 LB
  • AIRCRAFT INFORMATION
    Aircraft Type: B738SSW
    Registration: N37267
    SELCAL:  MSN/LN: 31586 / 939
    Operator: United Airlines
    Flights: 26 Block Time: 66.1 Flight Time: 59.4
    Fuel Used: 394987 LB

DATALINK LOG | Newest first | Current as of: 2020-05-25 13:56:13
LABEL ID SEQUENCE CONTENT Dn/Up
QD201701:20 4.9▼ Dn
QC093701:08▼ Dn
2U3731KORD 240351Z 22007KT 10SM FEW250 01/M03 A2971 RMK AO2 SLP066 T00061028▲ Up
2S3731KORD▼ Dn
QB535722:52▼ Dn
QA381222:38 18.5▼ Dn
2U3303KBOS 240154Z 22007KT 10SM OVC220 06/M04 A2985 RMK AO2 SLP106 T00561044▲ Up
2S3303KBOS▼ Dn
A33359CLEARED TO KORD VIA KBOS KORD UAL1598 N37267 . SQUAWK 7664.▲ Up
B33340KBOS KORD UAL1598 N37267 ▼ Dn
Q02955[LINK ACK]▲ Up
Q02946[LINK TEST]▼ Dn


AIRCRAFT HISTORY